createdAt,value
2022-09-17T00:01:24.501Z,101208.35
2022-09-17T00:03:53.656Z,101212.41
2022-09-17T00:06:23.134Z,101222.54
2022-09-17T00:08:51.272Z,101213.48
2022-09-17T00:11:22.457Z,101215.35
2022-09-17T00:13:51.081Z,101207.14
2022-09-17T00:16:32.984Z,101196.71
2022-09-17T00:19:01.168Z,101190.14
2022-09-17T00:21:29.025Z,101200.27
2022-09-17T00:24:01.307Z,101209.59
2022-09-17T00:26:29.289Z,101222.97
2022-09-17T00:28:57.589Z,101218.42
2022-09-17T00:31:25.639Z,101216.40
2022-09-17T00:33:53.457Z,101222.48
2022-09-17T00:36:21.738Z,101218.29
2022-09-17T00:38:59.635Z,101219.14
2022-09-17T00:41:29.717Z,101216.27
2022-09-17T00:43:59.037Z,101217.93
2022-09-17T00:46:47.831Z,101221.98
2022-09-17T00:49:18.165Z,101221.17
2022-09-17T00:51:50.784Z,101230.45
2022-09-17T00:54:18.475Z,101232.48
2022-09-17T00:56:46.183Z,101224.24
2022-09-17T00:59:14.090Z,101236.54
2022-09-17T01:01:41.878Z,101242.62
2022-09-17T01:04:20.121Z,101230.29
2022-09-17T01:07:10.089Z,101234.38
2022-09-17T01:09:58.281Z,101239.61
2022-09-17T01:13:14.082Z,101242.20
2022-09-17T01:15:56.259Z,101235.52
2022-09-17T01:18:54.715Z,101236.70
2022-09-17T01:21:43.903Z,101244.45
2022-09-17T01:24:30.265Z,101241.44
2022-09-17T01:27:45.551Z,101245.01
2022-09-17T01:30:22.918Z,101256.48
2022-09-17T01:32:57.791Z,101253.60
2022-09-17T01:35:33.763Z,101263.87
2022-09-17T01:38:25.731Z,101264.23
2022-09-17T01:41:31.447Z,101258.84
2022-09-17T01:44:32.525Z,101261.88
2022-09-17T01:47:22.896Z,101267.92
2022-09-17T01:49:52.776Z,101264.23
2022-09-17T01:52:20.479Z,101259.69
2022-09-17T01:54:50.338Z,101265.41
2022-09-17T01:57:34.538Z,101261.68
2022-09-17T02:00:10.608Z,101266.26
2022-09-17T02:02:40.108Z,101254.81
2022-09-17T02:05:10.042Z,101257.66
2022-09-17T02:07:42.011Z,101263.38
2022-09-17T02:10:13.784Z,101265.24
2022-09-17T02:12:52.191Z,101268.48
2022-09-17T02:15:22.705Z,101278.26
2022-09-17T02:18:00.202Z,101275.05
2022-09-17T02:20:43.874Z,101272.17
2022-09-17T02:23:17.926Z,101277.90
2022-09-17T02:25:50.269Z,101270.15
2022-09-17T02:28:47.073Z,101268.48
2022-09-17T02:31:15.004Z,101265.96
2022-09-17T02:33:43.259Z,101267.53
2022-09-17T02:36:10.973Z,101265.84
2022-09-17T02:38:39.649Z,101267.53
2022-09-17T02:41:19.902Z,101272.38
2022-09-17T02:43:53.799Z,101269.04
2022-09-17T02:46:31.402Z,101267.73
2022-09-17T02:49:28.367Z,101264.85
2022-09-17T02:52:20.380Z,101268.41
2022-09-17T02:55:22.934Z,101274.79
2022-09-17T02:57:57.558Z,101270.28
2022-09-17T03:00:30.429Z,101269.62
2022-09-17T03:03:32.025Z,101279.20
2022-09-17T03:05:59.982Z,101274.98
2022-09-17T03:08:32.081Z,101277.73
2022-09-17T03:10:59.857Z,101273.87
2022-09-17T03:13:27.682Z,101282.12
2022-09-17T03:15:55.434Z,101277.21
2022-09-17T03:18:23.258Z,101285.32
2022-09-17T03:20:51.648Z,101277.08
2022-09-17T03:23:19.757Z,101283.62
2022-09-17T03:25:48.057Z,101280.32
2022-09-17T03:28:15.744Z,101276.75
2022-09-17T03:30:45.404Z,101283.29
2022-09-17T03:33:13.617Z,101289.38
2022-09-17T03:35:45.134Z,101285.81
2022-09-17T03:38:16.129Z,101289.54
2022-09-17T03:40:44.006Z,101289.54
2022-09-17T03:43:11.812Z,101289.73
2022-09-17T03:45:39.732Z,101281.46
2022-09-17T03:48:07.489Z,101284.83
2022-09-17T03:50:35.291Z,101286.50
2022-09-17T03:53:03.049Z,101289.02
2022-09-17T03:55:31.208Z,101287.51
2022-09-17T03:57:59.456Z,101294.05
2022-09-17T04:00:27.567Z,101298.43
2022-09-17T04:02:58.436Z,101296.77
2022-09-17T04:05:29.808Z,101294.93
2022-09-17T04:07:57.930Z,101303.20
2022-09-17T04:10:27.377Z,101302.52
2022-09-17T04:12:55.862Z,101298.82
2022-09-17T04:15:23.529Z,101299.64
2022-09-17T04:18:05.247Z,101301.30
2022-09-17T04:20:34.012Z,101300.82
2022-09-17T04:23:01.791Z,101293.79
2022-09-17T04:25:29.508Z,101286.73
2022-09-17T04:27:57.205Z,101286.20
2022-09-17T04:30:24.892Z,101296.47
2022-09-17T04:32:52.678Z,101291.59
2022-09-17T04:35:20.489Z,101294.12
2022-09-17T04:37:58.170Z,101301.99
2022-09-17T04:40:26.696Z,101306.54
2022-09-17T04:42:58.105Z,101308.24
2022-09-17T04:45:25.856Z,101308.24
2022-09-17T04:47:53.584Z,101317.30
2022-09-17T04:50:21.560Z,101319.68
2022-09-17T04:52:50.714Z,101327.76
2022-09-17T04:55:18.518Z,101324.39
2022-09-17T04:57:50.005Z,101326.91
2022-09-17T05:00:18.770Z,101333.97
2022-09-17T05:02:48.758Z,101334.82
2022-09-17T05:05:16.854Z,101334.16
2022-09-17T05:07:45.176Z,101342.24
2022-09-17T05:10:13.436Z,101337.73
2022-09-17T05:12:41.437Z,101344.27
2022-09-17T05:15:09.349Z,101348.33
2022-09-17T05:17:37.075Z,101347.84
2022-09-17T05:20:05.039Z,101355.06
2022-09-17T05:22:32.848Z,101355.42
2022-09-17T05:25:03.553Z,101357.32
2022-09-17T05:27:31.286Z,101358.00
2022-09-17T05:29:59.116Z,101367.26
2022-09-17T05:32:26.842Z,101364.74
2022-09-17T05:34:54.812Z,101367.09
2022-09-17T05:37:22.501Z,101357.52
2022-09-17T05:39:50.291Z,101366.93
2022-09-17T05:42:18.034Z,101370.62
2022-09-17T05:44:45.736Z,101376.87
2022-09-17T05:47:13.467Z,101371.96
2022-09-17T05:49:41.175Z,101366.24
2022-09-17T05:52:09.022Z,101367.59
2022-09-17T05:54:36.735Z,101380.89
2022-09-17T05:57:04.456Z,101381.52
2022-09-17T05:59:32.833Z,101377.95
2022-09-17T06:02:00.905Z,101381.19
2022-09-17T06:04:32.691Z,101383.67
2022-09-17T06:07:04.832Z,101387.40
2022-09-17T06:09:32.643Z,101394.66
2022-09-17T06:12:00.325Z,101393.80
2022-09-17T06:14:28.051Z,101404.89
2022-09-17T06:16:57.104Z,101401.52
2022-09-17T06:19:24.878Z,101405.94
2022-09-17T06:21:52.922Z,101411.16
2022-09-17T06:24:20.648Z,101411.98
2022-09-17T06:26:48.398Z,101420.06
2022-09-17T06:29:16.553Z,101413.36
2022-09-17T06:31:45.824Z,101419.77
2022-09-17T06:34:13.597Z,101423.46
2022-09-17T06:36:41.319Z,101422.61
2022-09-17T06:39:09.222Z,101425.49
2022-09-17T06:41:38.376Z,101417.09
2022-09-17T06:44:06.227Z,101426.53
2022-09-17T06:46:34.381Z,101426.53
2022-09-17T06:49:02.172Z,101433.11
2022-09-17T06:51:31.225Z,101436.80
2022-09-17T06:53:58.982Z,101427.38
2022-09-17T06:56:26.752Z,101427.38
2022-09-17T06:58:55.195Z,101428.20
2022-09-17T07:01:23.226Z,101434.25
2022-09-17T07:03:51.601Z,101433.92
2022-09-17T07:06:19.373Z,101435.95
2022-09-17T07:08:48.274Z,101428.37
2022-09-17T07:11:17.155Z,101431.57
2022-09-17T07:13:44.850Z,101428.89
2022-09-17T07:16:14.185Z,101440.34
2022-09-17T07:18:41.958Z,101449.88
2022-09-17T07:21:11.053Z,101455.27
2022-09-17T07:23:39.094Z,101452.07
2022-09-17T07:26:13.612Z,101457.27
2022-09-17T07:28:41.756Z,101464.98
2022-09-17T07:31:15.260Z,101465.28
2022-09-17T07:33:44.095Z,101472.67
2022-09-17T07:36:13.132Z,101473.29
2022-09-17T07:38:41.013Z,101471.46
2022-09-17T07:41:13.720Z,101478.69
2022-09-17T07:43:41.711Z,101476.52
2022-09-17T07:46:10.207Z,101474.76
2022-09-17T07:48:37.976Z,101471.85
2022-09-17T07:51:05.876Z,101472.27
2022-09-17T07:53:34.164Z,101472.90
2022-09-17T07:56:02.244Z,101473.26
2022-09-17T07:58:31.854Z,101475.35
2022-09-17T08:01:09.813Z,101474.17
2022-09-17T08:03:38.065Z,101475.28
2022-09-17T08:06:10.550Z,101468.59
2022-09-17T08:08:38.481Z,101465.84
2022-09-17T08:11:32.469Z,101469.46
2022-09-17T08:14:05.391Z,101468.42
2022-09-17T08:16:33.337Z,101465.21
2022-09-17T08:19:01.099Z,101466.30
2022-09-17T08:21:29.067Z,101468.42
2022-09-17T08:23:56.919Z,101467.11
2022-09-17T08:26:26.095Z,101475.97
2022-09-17T08:28:57.764Z,101473.13
2022-09-17T08:31:29.505Z,101482.19
2022-09-17T08:33:57.403Z,101480.16
2022-09-17T08:36:29.300Z,101478.98
2022-09-17T08:38:57.247Z,101467.60
2022-09-17T08:41:35.455Z,101468.91
2022-09-17T08:44:09.705Z,101467.90
2022-09-17T08:46:49.890Z,101473.45
2022-09-17T08:49:49.823Z,101472.70
2022-09-17T08:52:35.994Z,101462.24
2022-09-17T08:55:24.910Z,101467.60
2022-09-17T08:58:11.662Z,101467.05
2022-09-17T09:00:44.544Z,101472.18
2022-09-17T09:03:38.504Z,101470.41
2022-09-17T09:06:10.733Z,101471.20
2022-09-17T09:08:48.417Z,101463.58
2022-09-17T09:11:18.335Z,101460.57
2022-09-17T09:13:48.178Z,101458.15
2022-09-17T09:16:27.341Z,101456.65
2022-09-17T09:19:08.318Z,101453.67
2022-09-17T09:21:55.877Z,101455.96
2022-09-17T09:24:27.614Z,101451.77
2022-09-17T09:27:02.435Z,101455.73
2022-09-17T09:29:47.705Z,101455.73
2022-09-17T09:32:18.480Z,101456.87
2022-09-17T09:34:47.027Z,101463.25
2022-09-17T09:37:32.333Z,101463.48
2022-09-17T09:40:14.372Z,101462.73
2022-09-17T09:42:42.403Z,101464.69
2022-09-17T09:45:49.956Z,101461.59
2022-09-17T09:48:32.817Z,101463.71
2022-09-17T09:51:12.468Z,101456.12
2022-09-17T09:54:09.066Z,101468.62
2022-09-17T09:56:40.151Z,101463.58
2022-09-17T09:59:09.737Z,101462.70
2022-09-17T10:01:40.050Z,101465.54
2022-09-17T10:04:26.033Z,101460.73
2022-09-17T10:06:55.271Z,101460.96
2022-09-17T10:09:23.640Z,101461.48
2022-09-17T10:12:01.283Z,101472.48
2022-09-17T10:14:30.833Z,101462.80
2022-09-17T10:17:20.639Z,101470.67
2022-09-17T10:20:11.799Z,101473.78
2022-09-17T10:22:49.061Z,101473.98
2022-09-17T10:25:23.492Z,101468.19
2022-09-17T10:27:51.313Z,101465.90
2022-09-17T10:30:19.531Z,101474.99
2022-09-17T10:33:15.942Z,101477.80
2022-09-17T10:35:48.772Z,101472.48
2022-09-17T10:38:36.095Z,101474.40
2022-09-17T10:41:26.741Z,101483.03
2022-09-17T10:43:54.562Z,101481.20
2022-09-17T10:46:30.314Z,101485.39
2022-09-17T10:49:24.181Z,101478.45
2022-09-17T10:51:51.858Z,101488.46
2022-09-17T10:54:19.420Z,101483.98
2022-09-17T10:56:50.983Z,101488.46
2022-09-17T10:59:41.669Z,101478.59
2022-09-17T11:02:30.952Z,101471.82
2022-09-17T11:05:36.315Z,101472.27
2022-09-17T11:08:12.312Z,101477.25
2022-09-17T11:10:46.505Z,101464.49
2022-09-17T11:13:39.117Z,101463.58
2022-09-17T11:16:45.199Z,101466.62
2022-09-17T11:19:37.813Z,101497.75
2022-09-17T11:22:18.517Z,101503.27
2022-09-17T11:24:50.033Z,101509.48
2022-09-17T11:27:24.451Z,101526.84
2022-09-17T11:30:01.182Z,101547.31
2022-09-17T11:32:41.936Z,101553.30
2022-09-17T11:35:22.537Z,101549.44
2022-09-17T11:38:06.326Z,101543.55
2022-09-17T11:40:37.146Z,101528.29
2022-09-17T11:43:10.049Z,101529.69
2022-09-17T11:45:42.928Z,101520.41
2022-09-17T11:48:17.123Z,101525.84
2022-09-17T11:51:15.897Z,101517.17
2022-09-17T11:53:54.256Z,101526.48
2022-09-17T11:56:28.767Z,101529.01
2022-09-17T11:59:21.281Z,101526.13
2022-09-17T12:02:01.164Z,101532.21
2022-09-17T12:04:46.071Z,101525.57
2022-09-17T12:07:24.369Z,101519.55
2022-09-17T12:10:05.059Z,101529.40
2022-09-17T12:12:48.990Z,101526.84
2022-09-17T12:15:28.169Z,101529.49
2022-09-17T12:18:30.493Z,101522.92
2022-09-17T12:20:53.927Z,101520.54
2022-09-17T12:23:33.006Z,101515.86
2022-09-17T12:26:34.554Z,101511.58
2022-09-17T12:29:13.555Z,101503.96
2022-09-17T12:31:56.009Z,101492.81
2022-09-17T12:34:33.371Z,101480.87
2022-09-17T12:37:28.378Z,101483.30
2022-09-17T12:40:27.199Z,101473.23
2022-09-17T12:43:11.012Z,101470.25
2022-09-17T12:45:50.890Z,101473.68
2022-09-17T12:49:04.217Z,101473.45
2022-09-17T12:51:51.028Z,101475.74
2022-09-17T12:54:30.809Z,101479.77
2022-09-17T12:57:04.581Z,101479.34
2022-09-17T12:59:34.188Z,101468.29
2022-09-17T13:02:05.882Z,101477.12
2022-09-17T13:05:00.648Z,101476.73
2022-09-17T13:07:32.319Z,101468.59
2022-09-17T13:10:24.558Z,101479.44
2022-09-17T13:12:59.398Z,101476.43
2022-09-17T13:15:37.101Z,101472.77
2022-09-17T13:18:26.620Z,101475.45
2022-09-17T13:21:35.575Z,101478.69
2022-09-17T13:24:03.324Z,101478.75
2022-09-17T13:26:36.416Z,101475.58
2022-09-17T13:29:05.669Z,101474.14
2022-09-17T13:34:21.427Z,101463.05
2022-09-17T13:37:21.504Z,101457.73
2022-09-17T13:39:52.785Z,101467.90
2022-09-17T13:42:33.254Z,101456.23
2022-09-17T13:45:08.769Z,101465.31
2022-09-17T13:47:40.239Z,101479.24
2022-09-17T13:50:09.962Z,101497.98
2022-09-17T13:52:48.088Z,101494.28
2022-09-17T13:55:36.433Z,101496.21
2022-09-17T13:58:05.493Z,101473.32
2022-09-17T14:00:57.337Z,101483.07
2022-09-17T14:03:38.796Z,101476.56
2022-09-17T14:06:06.387Z,101489.12
2022-09-17T14:08:46.299Z,101489.54
2022-09-17T14:11:33.498Z,101479.60
2022-09-17T14:14:04.178Z,101490.45
2022-09-17T14:16:43.434Z,101485.03
2022-09-17T14:19:17.379Z,101486.20
2022-09-17T14:22:03.112Z,101480.78
2022-09-17T14:24:36.217Z,101474.53
2022-09-17T14:27:21.172Z,101468.22
2022-09-17T14:30:13.596Z,101464.30
2022-09-17T14:33:02.346Z,101465.18
2022-09-17T14:35:31.227Z,101463.38
2022-09-17T14:38:24.061Z,101466.45
2022-09-17T14:41:13.006Z,101456.38
2022-09-17T14:44:03.572Z,101458.58
2022-09-17T14:46:58.314Z,101454.46
2022-09-17T14:49:29.942Z,101452.27
2022-09-17T14:51:58.514Z,101458.31
2022-09-17T14:57:29.137Z,101455.50
2022-09-17T14:59:57.818Z,101451.29
2022-09-17T15:02:46.933Z,101464.95
2022-09-17T15:05:19.725Z,101471.20
2022-09-17T15:07:47.595Z,101461.36
2022-09-17T15:10:22.841Z,101468.32
2022-09-17T15:12:50.801Z,101471.88
2022-09-17T15:15:23.255Z,101485.52
2022-09-17T15:17:51.296Z,101473.29
2022-09-17T15:23:20.445Z,101483.43
2022-09-17T15:26:30.542Z,101475.52
2022-09-17T15:28:58.507Z,101482.84
2022-09-17T15:31:26.333Z,101482.61
2022-09-17T15:33:54.091Z,101474.73
2022-09-17T15:36:25.960Z,101481.07
2022-09-17T15:38:53.862Z,101479.38
2022-09-17T15:41:35.865Z,101477.25
2022-09-17T15:44:30.903Z,101477.57
2022-09-17T15:53:11.870Z,101487.12
2022-09-17T15:55:42.607Z,101481.01
2022-09-17T15:58:26.327Z,101476.43
2022-09-17T16:01:20.900Z,101482.41
2022-09-17T16:04:06.014Z,101486.47
2022-09-17T16:06:34.335Z,101491.50
2022-09-17T16:09:02.399Z,101491.34
2022-09-17T16:11:33.459Z,101489.24
2022-09-17T16:14:01.915Z,101497.59
2022-09-17T16:16:38.148Z,101493.82
2022-09-17T16:19:07.424Z,101474.01
2022-09-17T16:21:35.199Z,101493.95
2022-09-17T16:24:03.204Z,101491.27
2022-09-17T16:26:32.359Z,101494.38
2022-09-17T16:29:05.466Z,101499.12
2022-09-17T16:31:33.316Z,101508.57
2022-09-17T16:34:01.803Z,101507.10
2022-09-17T16:36:32.160Z,101508.63
2022-09-17T16:39:00.322Z,101508.51
2022-09-17T16:41:28.100Z,101521.68
2022-09-17T16:43:55.829Z,101531.30
2022-09-17T16:46:23.559Z,101521.59
2022-09-17T16:48:51.688Z,101533.91
2022-09-17T16:51:19.523Z,101536.39
2022-09-17T16:53:47.272Z,101537.34
2022-09-17T16:56:15.786Z,101537.15
2022-09-17T16:58:43.606Z,101546.30
2022-09-17T17:01:17.006Z,101540.94
2022-09-17T17:03:46.786Z,101549.05
2022-09-17T17:06:18.275Z,101550.42
2022-09-17T17:08:46.049Z,101550.42
2022-09-17T17:11:13.933Z,101545.74
2022-09-17T17:13:43.518Z,101553.00
2022-09-17T17:16:12.314Z,101548.85
2022-09-17T17:18:40.306Z,101551.73
2022-09-17T17:21:09.122Z,101556.60
2022-09-17T17:23:36.901Z,101553.59
2022-09-17T17:26:04.936Z,101569.98
2022-09-17T17:28:36.052Z,101561.05
2022-09-17T17:31:05.167Z,101559.38
2022-09-17T17:33:33.089Z,101562.55
2022-09-17T17:36:07.369Z,101554.51
2022-09-17T17:38:35.529Z,101558.89
2022-09-17T17:41:13.300Z,101555.03
2022-09-17T17:43:41.304Z,101559.12
2022-09-17T17:46:10.478Z,101568.37
2022-09-17T17:48:38.465Z,101563.99
2022-09-17T17:51:07.480Z,101566.34
2022-09-17T17:53:35.403Z,101571.41
2022-09-17T17:56:05.452Z,101570.76
2022-09-17T17:58:33.387Z,101582.37
2022-09-17T18:01:01.199Z,101583.70
2022-09-17T18:03:28.926Z,101579.00
2022-09-17T18:05:59.685Z,101588.09
2022-09-17T18:08:27.335Z,101592.66
2022-09-17T18:10:59.035Z,101600.55
2022-09-17T18:13:26.852Z,101594.82
2022-09-17T18:15:56.095Z,101598.38
2022-09-17T18:18:24.407Z,101609.34
2022-09-17T18:20:54.299Z,101614.38
2022-09-17T18:23:22.156Z,101607.97
2022-09-17T18:25:56.807Z,101615.72
2022-09-17T18:28:24.636Z,101611.17
2022-09-17T18:33:30.968Z,101625.79
2022-09-17T18:36:02.315Z,101639.45
2022-09-17T18:38:32.138Z,101634.91
2022-09-17T18:43:35.619Z,101638.77
2022-09-17T18:46:04.794Z,101643.15
2022-09-17T18:48:36.310Z,101641.64
2022-09-17T18:51:09.663Z,101653.09
2022-09-17T18:53:38.123Z,101653.77
2022-09-17T18:56:21.977Z,101652.92
2022-09-17T18:58:51.088Z,101656.95
2022-09-17T19:01:19.112Z,101658.13
2022-09-17T19:03:46.828Z,101670.41
2022-09-17T19:06:16.290Z,101673.81
2022-09-17T19:08:44.156Z,101677.19
2022-09-17T19:11:12.329Z,101675.16
2022-09-17T19:13:41.628Z,101683.40
2022-09-17T19:16:09.479Z,101690.69
2022-09-17T19:18:38.285Z,101690.00
2022-09-17T19:21:11.633Z,101682.58
2022-09-17T19:23:43.331Z,101690.33
2022-09-17T19:26:16.609Z,101689.84
2022-09-17T19:28:44.605Z,101698.77
2022-09-17T19:31:14.021Z,101708.87
2022-09-17T19:33:41.806Z,101698.08
2022-09-17T19:36:11.962Z,101705.83
2022-09-17T19:38:39.865Z,101707.04
2022-09-17T19:41:18.240Z,101697.26
2022-09-17T19:43:49.022Z,101703.15
2022-09-17T19:46:18.935Z,101693.01
2022-09-17T19:48:47.924Z,101700.43
2022-09-17T19:51:16.103Z,101707.33
2022-09-17T19:53:43.856Z,101701.94
2022-09-17T19:56:13.970Z,101695.40
2022-09-17T19:58:41.920Z,101699.77
2022-09-17T20:01:09.626Z,101704.81
2022-09-17T20:03:39.326Z,101699.09
2022-09-17T20:06:08.485Z,101699.74
2022-09-17T20:08:43.516Z,101710.70
2022-09-17T20:11:13.847Z,101702.79
2022-09-17T20:13:41.612Z,101704.48
2022-09-17T20:16:14.842Z,101696.90
2022-09-17T20:18:42.962Z,101708.34
2022-09-17T20:21:17.815Z,101708.18
2022-09-17T20:23:45.544Z,101705.66
2022-09-17T20:26:13.601Z,101708.18
2022-09-17T20:28:41.355Z,101713.90
2022-09-17T20:31:13.405Z,101709.36
2022-09-17T20:33:41.442Z,101703.80
2022-09-17T20:36:12.282Z,101710.34
2022-09-17T20:41:28.825Z,101718.94
2022-09-17T20:43:56.848Z,101725.84
2022-09-17T20:46:28.906Z,101729.70
2022-09-17T20:48:58.671Z,101728.35
2022-09-17T20:51:30.623Z,101730.05
2022-09-17T20:53:58.428Z,101725.51
2022-09-17T20:56:28.074Z,101740.98
2022-09-17T20:59:04.155Z,101739.60
2022-09-17T21:01:33.846Z,101735.91
2022-09-17T21:04:01.938Z,101738.06
2022-09-17T21:06:31.289Z,101745.16
2022-09-17T21:09:01.175Z,101748.49
2022-09-17T21:11:29.710Z,101749.87
2022-09-17T21:13:57.494Z,101749.02
2022-09-17T21:16:25.964Z,101751.05
2022-09-17T21:19:02.512Z,101754.74
2022-09-17T21:21:30.532Z,101753.92
2022-09-17T21:24:04.120Z,101752.71
2022-09-17T21:26:31.829Z,101762.49
2022-09-17T21:28:59.583Z,101759.25
2022-09-17T21:31:33.229Z,101756.24
2022-09-17T21:34:02.613Z,101758.11
2022-09-17T21:36:31.860Z,101763.83
2022-09-17T21:39:01.595Z,101768.02
2022-09-17T21:41:29.545Z,101769.35
2022-09-17T21:43:57.301Z,101772.40
2022-09-17T21:46:26.553Z,101775.47
2022-09-17T21:48:55.020Z,101771.94
2022-09-17T21:51:23.853Z,101774.45
2022-09-17T21:53:52.763Z,101777.30
2022-09-17T21:56:20.827Z,101774.42
2022-09-17T21:58:52.014Z,101773.93
2022-09-17T22:01:24.431Z,101776.77
2022-09-17T22:03:53.345Z,101777.59
2022-09-17T22:06:22.732Z,101779.78
2022-09-17T22:08:52.652Z,101778.45
2022-09-17T22:11:22.147Z,101779.46
2022-09-17T22:14:00.014Z,101776.58
2022-09-17T22:16:28.949Z,101789.20
2022-09-17T22:18:56.723Z,101784.49
2022-09-17T22:21:25.625Z,101785.38
2022-09-17T22:23:54.405Z,101785.87
2022-09-17T22:26:23.415Z,101782.17
2022-09-17T22:28:51.420Z,101782.70
2022-09-17T22:31:19.505Z,101797.15
2022-09-17T22:33:48.351Z,101785.54
2022-09-17T22:36:21.062Z,101787.53
2022-09-17T22:38:50.625Z,101792.21
2022-09-17T22:41:23.516Z,101788.48
2022-09-17T22:43:55.300Z,101786.62
2022-09-17T22:46:24.733Z,101784.76
2022-09-17T22:48:52.735Z,101787.77
2022-09-17T22:51:20.479Z,101794.79
2022-09-17T22:53:48.234Z,101787.01
2022-09-17T22:56:17.039Z,101783.16
2022-09-17T22:58:44.869Z,101786.48
2022-09-17T23:01:17.688Z,101783.28
2022-09-17T23:03:45.792Z,101786.32
2022-09-17T23:06:15.503Z,101790.70
2022-09-17T23:08:43.238Z,101789.56
2022-09-17T23:11:17.180Z,101790.02
2022-09-17T23:13:45.022Z,101792.02
2022-09-17T23:16:12.877Z,101796.91
2022-09-17T23:18:40.673Z,101800.29
2022-09-17T23:21:11.090Z,101802.31
2022-09-17T23:23:38.889Z,101789.01
2022-09-17T23:26:08.089Z,101792.87
2022-09-17T23:28:36.451Z,101799.77
2022-09-17T23:31:29.208Z,101796.39
2022-09-17T23:33:57.261Z,101800.61
2022-09-17T23:36:36.421Z,101803.30
2022-09-17T23:39:04.304Z,101802.25
2022-09-17T23:41:38.929Z,101800.25
2022-09-17T23:44:13.678Z,101805.12
2022-09-17T23:46:43.025Z,101799.41
2022-09-17T23:49:11.268Z,101793.02
2022-09-17T23:51:39.102Z,101797.05
2022-09-17T23:54:08.127Z,101799.56
2022-09-17T23:56:36.038Z,101797.70
2022-09-17T23:59:04.284Z,101796.66
